createdAt,value
2022-08-05T00:00:15.950Z,9.48
2022-08-05T00:02:44.075Z,10.05
2022-08-05T00:05:27.485Z,6.72
2022-08-05T00:08:32.815Z,9.65
2022-08-05T00:10:56.739Z,5.15
2022-08-05T00:13:38.121Z,8.10
2022-08-05T00:16:09.576Z,7.57
2022-08-05T00:18:39.725Z,6.78
2022-08-05T00:21:07.006Z,5.43
2022-08-05T00:23:46.123Z,6.47
2022-08-05T00:26:20.568Z,8.82
2022-08-05T00:28:47.099Z,7.20
2022-08-05T00:31:15.854Z,6.47
2022-08-05T00:34:53.951Z,8.18
2022-08-05T00:37:11.270Z,8.07
2022-08-05T00:39:16.166Z,7.35
2022-08-05T00:41:55.126Z,4.72
2022-08-05T00:44:30.810Z,6.93
2022-08-05T00:47:01.611Z,9.95
2022-08-05T00:49:32.565Z,7.05
2022-08-05T00:52:10.840Z,8.13
2022-08-05T00:54:38.594Z,7.60
2022-08-05T00:57:05.345Z,9.23
2022-08-05T00:59:34.428Z,5.63
2022-08-05T01:02:01.273Z,7.93
2022-08-05T01:04:29.917Z,5.97
2022-08-05T01:06:56.814Z,6.70
2022-08-05T01:09:23.361Z,5.75
2022-08-05T01:11:53.731Z,5.78
2022-08-05T01:17:10.791Z,7.43
2022-08-05T01:20:01.037Z,6.00
2022-08-05T01:22:40.682Z,5.55
2022-08-05T01:25:19.317Z,6.80
2022-08-05T01:27:55.840Z,7.72
2022-08-05T01:30:34.262Z,5.97
2022-08-05T01:33:08.523Z,7.72
2022-08-05T01:35:50.756Z,8.05
2022-08-05T01:38:27.101Z,5.07
2022-08-05T01:40:59.585Z,5.35
2022-08-05T01:43:28.133Z,6.35
2022-08-05T01:45:57.155Z,6.03
2022-08-05T01:48:27.195Z,10.35
2022-08-05T01:50:56.588Z,9.63
2022-08-05T01:53:54.566Z,6.60
2022-08-05T01:58:09.944Z,5.53
2022-08-05T01:59:06.145Z,5.85
2022-08-05T02:01:39.914Z,6.57
2022-08-05T02:04:10.324Z,4.90
2022-08-05T02:06:39.193Z,8.70
2022-08-05T02:09:07.440Z,5.20
2022-08-05T02:11:47.855Z,7.75
2022-08-05T02:14:27.371Z,5.82
2022-08-05T02:17:00.198Z,6.32
2022-08-05T02:19:47.031Z,7.25
2022-08-05T02:22:26.787Z,5.35
2022-08-05T02:25:02.550Z,4.35
2022-08-05T02:27:57.880Z,5.90
2022-08-05T02:30:21.509Z,8.95
2022-08-05T02:32:53.358Z,7.80
2022-08-05T02:35:27.976Z,6.13
2022-08-05T02:37:56.697Z,6.93
2022-08-05T02:40:27.541Z,6.95
2022-08-05T02:42:56.490Z,8.25
2022-08-05T02:45:25.223Z,6.40
2022-08-05T02:48:06.537Z,6.97
2022-08-05T02:50:44.113Z,6.20
2022-08-05T02:53:16.155Z,5.38
2022-08-05T02:55:54.688Z,8.00
2022-08-05T02:58:27.465Z,7.07
2022-08-05T03:00:57.469Z,7.18
2022-08-05T03:03:24.532Z,11.00
2022-08-05T03:06:54.728Z,5.03
2022-08-05T03:08:42.444Z,5.60
2022-08-05T03:14:09.062Z,7.80
2022-08-05T03:16:39.850Z,6.60
2022-08-05T03:19:16.911Z,8.68
2022-08-05T03:21:49.545Z,9.50
2022-08-05T03:24:30.155Z,5.45
2022-08-05T03:26:59.457Z,8.15
2022-08-05T03:29:44.804Z,6.18
2022-08-05T03:32:15.516Z,6.82
2022-08-05T03:34:51.145Z,7.00
2022-08-05T03:37:19.175Z,5.18
2022-08-05T03:39:59.198Z,7.22
2022-08-05T03:42:29.104Z,6.28
2022-08-05T03:44:56.062Z,8.82
2022-08-05T03:47:23.980Z,6.15
2022-08-05T03:49:52.311Z,9.00
2022-08-05T03:52:38.840Z,7.40
2022-08-05T03:56:00.919Z,8.52
2022-08-05T03:58:29.235Z,5.82
2022-08-05T04:00:59.993Z,7.57
2022-08-05T04:03:29.301Z,6.85
2022-08-05T04:05:59.151Z,6.53
2022-08-05T04:08:34.712Z,6.57
2022-08-05T04:11:06.017Z,5.10
2022-08-05T04:13:49.757Z,6.13
2022-08-05T04:16:24.201Z,7.97
2022-08-05T04:18:54.235Z,6.45
2022-08-05T04:22:09.301Z,5.90
2022-08-05T04:24:08.943Z,6.75
2022-08-05T04:26:36.090Z,6.78
2022-08-05T04:29:07.362Z,5.97
2022-08-05T04:31:38.545Z,4.88
2022-08-05T04:34:31.643Z,7.43
2022-08-05T04:36:58.071Z,7.22
2022-08-05T04:39:24.721Z,6.32
2022-08-05T04:41:54.538Z,5.80
2022-08-05T04:44:29.705Z,7.10
2022-08-05T04:47:09.889Z,6.03
2022-08-05T04:50:02.610Z,7.32
2022-08-05T04:52:27.906Z,11.32
2022-08-05T04:54:57.353Z,7.47
2022-08-05T04:57:29.164Z,6.45
2022-08-05T04:59:56.968Z,8.18
2022-08-05T05:02:41.380Z,6.45
2022-08-05T05:05:16.706Z,6.85
2022-08-05T05:08:01.698Z,7.03
2022-08-05T05:10:29.908Z,7.43
2022-08-05T05:12:59.315Z,5.45
2022-08-05T05:15:57.031Z,8.65
2022-08-05T05:18:31.425Z,8.60
2022-08-05T05:21:00.366Z,6.68
2022-08-05T05:23:26.945Z,7.70
2022-08-05T05:26:09.937Z,8.25
2022-08-05T05:28:38.971Z,6.38
2022-08-05T05:31:09.487Z,6.90
2022-08-05T05:33:59.835Z,4.53
2022-08-05T05:37:03.842Z,5.88
2022-08-05T05:39:36.109Z,5.13
2022-08-05T05:42:03.011Z,8.02
2022-08-05T05:44:36.403Z,6.80
2022-08-05T05:47:04.195Z,5.57
2022-08-05T05:49:31.375Z,5.05
2022-08-05T05:52:01.103Z,5.57
2022-08-05T05:54:50.134Z,6.35
2022-08-05T05:57:19.156Z,4.78
2022-08-05T05:59:46.846Z,6.13
2022-08-05T06:02:15.304Z,4.75
2022-08-05T06:04:43.442Z,5.82
2022-08-05T06:07:16.361Z,3.08
2022-08-05T06:10:00.045Z,4.68
2022-08-05T06:12:28.325Z,5.07
2022-08-05T06:14:55.272Z,3.50
2022-08-05T06:17:53.048Z,8.93
2022-08-05T06:20:18.838Z,3.75
2022-08-05T06:22:48.094Z,5.47
2022-08-05T06:25:59.340Z,4.28
2022-08-05T06:28:12.583Z,4.97
2022-08-05T06:30:47.811Z,5.25
2022-08-05T06:33:19.387Z,4.32
2022-08-05T06:36:07.749Z,6.75
2022-08-05T06:38:37.233Z,2.45
2022-08-05T06:41:07.926Z,5.43
2022-08-05T06:43:58.027Z,2.97
2022-08-05T06:46:21.320Z,5.15
2022-08-05T06:48:56.455Z,2.75
2022-08-05T06:51:30.106Z,5.55
2022-08-05T06:53:58.797Z,2.92
2022-08-05T06:56:26.432Z,5.82
2022-08-05T06:58:53.521Z,4.75
2022-08-05T07:01:20.754Z,3.75
2022-08-05T07:03:47.622Z,3.92
2022-08-05T07:06:15.146Z,3.88
2022-08-05T07:08:47.477Z,4.10
2022-08-05T07:14:15.529Z,3.17
2022-08-05T07:17:59.465Z,4.85
2022-08-05T07:22:28.961Z,3.83
2022-08-05T07:25:09.516Z,2.75
2022-08-05T07:27:58.829Z,3.45
2022-08-05T07:30:32.431Z,2.33
2022-08-05T07:36:03.729Z,2.60
2022-08-05T07:38:26.464Z,2.85
2022-08-05T07:41:04.484Z,1.63
2022-08-05T07:43:46.957Z,1.83
2022-08-05T07:46:18.915Z,2.88
2022-08-05T07:49:02.005Z,1.02
2022-08-05T07:51:40.244Z,1.17
2022-08-05T07:54:15.494Z,2.38
2022-08-05T07:57:02.320Z,6.35
2022-08-05T07:59:31.365Z,1.13
2022-08-05T08:02:15.502Z,2.97
2022-08-05T08:04:44.979Z,2.30
2022-08-05T08:07:12.266Z,1.70
2022-08-05T08:09:38.718Z,1.95
2022-08-05T08:12:14.030Z,1.58
2022-08-05T08:14:47.118Z,3.17
2022-08-05T08:17:15.937Z,2.15
2022-08-05T08:20:42.336Z,2.33
2022-08-05T08:22:34.796Z,1.65
2022-08-05T08:25:03.348Z,2.83
2022-08-05T08:27:39.906Z,1.80
2022-08-05T08:30:19.675Z,1.63
2022-08-05T08:32:58.149Z,2.38
2022-08-05T08:35:35.231Z,3.65
2022-08-05T08:38:07.702Z,1.17
2022-08-05T08:40:35.319Z,2.35
2022-08-05T08:43:20.993Z,1.35
2022-08-05T08:45:52.792Z,1.50
2022-08-05T08:48:42.713Z,1.58
2022-08-05T08:52:01.617Z,0.93
2022-08-05T08:53:53.705Z,1.90
2022-08-05T08:56:23.518Z,2.17
2022-08-05T08:58:54.348Z,2.55
2022-08-05T09:01:21.634Z,0.80
2022-08-05T09:03:54.507Z,1.80
2022-08-05T09:06:28.181Z,1.75
2022-08-05T09:08:58.658Z,1.35
2022-08-05T09:11:50.685Z,2.75
2022-08-05T09:14:58.480Z,3.13
2022-08-05T09:17:00.204Z,0.85
2022-08-05T09:19:36.306Z,1.27
2022-08-05T09:22:23.457Z,2.42
2022-08-05T09:25:24.050Z,1.30
2022-08-05T09:28:03.848Z,3.50
2022-08-05T09:30:31.993Z,0.80
2022-08-05T09:33:02.313Z,2.67
2022-08-05T09:35:29.452Z,2.00
2022-08-05T09:38:12.655Z,2.80
2022-08-05T09:40:51.955Z,3.33
2022-08-05T09:43:41.055Z,1.95
2022-08-05T09:46:27.290Z,5.20
2022-08-05T09:49:08.292Z,1.67
2022-08-05T09:51:48.988Z,3.38
2022-08-05T09:54:21.221Z,2.25
2022-08-05T09:56:55.465Z,1.15
2022-08-05T09:59:24.391Z,1.90
2022-08-05T10:01:58.288Z,0.95
2022-08-05T10:04:35.514Z,2.25
2022-08-05T10:07:14.127Z,1.27
2022-08-05T10:10:14.418Z,1.25
2022-08-05T10:12:50.045Z,1.67
2022-08-05T10:15:22.991Z,2.75
2022-08-05T10:18:14.275Z,3.45
2022-08-05T10:20:47.590Z,1.92
2022-08-05T10:23:34.658Z,1.98
2022-08-05T10:26:07.948Z,1.77
2022-08-05T10:28:42.948Z,3.55
2022-08-05T10:32:49.324Z,2.45
2022-08-05T10:33:59.634Z,2.55
2022-08-05T10:36:27.887Z,3.13
2022-08-05T10:39:10.109Z,1.77
2022-08-05T10:41:49.263Z,1.58
2022-08-05T10:44:23.093Z,1.88
2022-08-05T10:46:54.730Z,3.45
2022-08-05T10:49:33.288Z,2.60
2022-08-05T10:52:03.233Z,1.02
2022-08-05T10:54:56.287Z,4.03
2022-08-05T10:57:31.671Z,2.05
2022-08-05T11:00:19.127Z,2.25
2022-08-05T11:03:25.702Z,2.60
2022-08-05T11:06:17.775Z,1.48
2022-08-05T11:09:16.665Z,2.33
2022-08-05T11:11:53.166Z,0.88
2022-08-05T11:14:57.411Z,1.45
2022-08-05T11:18:00.216Z,3.15
2022-08-05T11:20:41.712Z,1.38
2022-08-05T11:23:33.668Z,2.17
2022-08-05T11:26:28.484Z,2.53
2022-08-05T11:29:06.920Z,0.82
2022-08-05T11:31:57.877Z,1.13
2022-08-05T11:34:39.295Z,1.92
2022-08-05T11:38:30.407Z,1.65
2022-08-05T11:40:00.679Z,2.83
2022-08-05T11:42:32.947Z,3.40
2022-08-05T11:45:23.247Z,0.40
2022-08-05T11:47:55.283Z,0.85
2022-08-05T11:50:22.551Z,3.75
2022-08-05T11:52:52.077Z,1.33
2022-08-05T11:55:21.389Z,1.85
2022-08-05T11:58:09.717Z,2.30
2022-08-05T12:00:39.057Z,3.78
2022-08-05T12:03:23.759Z,4.55
2022-08-05T12:05:59.397Z,1.98
2022-08-05T12:08:26.386Z,0.75
2022-08-05T12:10:53.932Z,2.28
2022-08-05T12:13:27.999Z,1.63
2022-08-05T12:16:14.435Z,1.00
2022-08-05T12:18:42.746Z,1.35
2022-08-05T12:21:26.844Z,1.48
2022-08-05T12:24:08.272Z,2.33
2022-08-05T12:26:47.765Z,2.60
2022-08-05T12:29:22.546Z,2.33
2022-08-05T12:31:54.398Z,1.52
2022-08-05T12:34:33.203Z,3.17
2022-08-05T12:37:17.672Z,4.30
2022-08-05T12:39:51.343Z,1.25
2022-08-05T12:42:20.809Z,2.17
2022-08-05T12:44:48.314Z,1.80
2022-08-05T12:47:28.822Z,2.33
2022-08-05T12:50:03.449Z,3.00
2022-08-05T12:52:38.607Z,2.08
2022-08-05T12:55:25.654Z,2.97
2022-08-05T12:58:38.513Z,2.63
2022-08-05T13:02:02.062Z,3.35
2022-08-05T13:03:35.058Z,1.92
2022-08-05T13:06:12.923Z,2.70
2022-08-05T13:08:39.956Z,2.45
2022-08-05T13:11:07.797Z,3.20
2022-08-05T13:14:06.216Z,3.33
2022-08-05T13:16:28.735Z,3.72
2022-08-05T13:21:27.900Z,4.68
2022-08-05T13:24:04.444Z,3.58
2022-08-05T13:26:31.474Z,2.75
2022-08-05T13:28:59.129Z,2.67
2022-08-05T13:31:33.938Z,3.78
2022-08-05T13:34:20.295Z,3.13
2022-08-05T13:36:52.369Z,3.83
2022-08-05T13:39:24.638Z,1.42
2022-08-05T13:42:05.437Z,2.60
2022-08-05T13:44:32.614Z,1.70
2022-08-05T13:47:08.601Z,3.97
2022-08-05T13:49:35.897Z,1.98
2022-08-05T13:52:11.688Z,1.98
2022-08-05T13:54:39.249Z,1.40
2022-08-05T13:57:07.022Z,2.85
2022-08-05T13:59:34.011Z,3.13
2022-08-05T14:02:04.081Z,2.15
2022-08-05T14:04:54.446Z,4.90
2022-08-05T14:07:26.042Z,2.88
2022-08-05T14:10:19.097Z,2.70
2022-08-05T14:12:54.878Z,2.45
2022-08-05T14:16:05.085Z,3.63
2022-08-05T14:18:18.727Z,3.42
2022-08-05T14:20:54.841Z,2.50
2022-08-05T14:23:25.802Z,1.67
2022-08-05T14:25:58.604Z,2.10
2022-08-05T14:28:27.717Z,2.85
2022-08-05T14:30:55.966Z,2.28
2022-08-05T14:33:23.663Z,2.22
2022-08-05T14:35:52.081Z,0.77
2022-08-05T14:38:31.935Z,2.15
2022-08-05T14:41:07.229Z,2.22
2022-08-05T14:44:01.930Z,1.48
2022-08-05T14:46:28.299Z,1.00
2022-08-05T14:48:55.468Z,0.98
2022-08-05T14:51:22.074Z,1.98
2022-08-05T14:54:26.463Z,2.88
2022-08-05T14:56:38.163Z,2.13
2022-08-05T14:59:11.388Z,1.95
2022-08-05T15:01:48.251Z,3.72
2022-08-05T15:04:16.889Z,2.17
2022-08-05T15:06:48.937Z,3.75
2022-08-05T15:09:52.342Z,2.80
2022-08-05T15:12:09.344Z,3.08
2022-08-05T15:14:46.604Z,4.18
2022-08-05T15:17:44.990Z,4.45
2022-08-05T15:20:04.939Z,5.30
2022-08-05T15:22:31.546Z,2.22
2022-08-05T15:24:59.173Z,2.83
2022-08-05T15:27:26.236Z,5.63
2022-08-05T15:29:58.827Z,3.20
2022-08-05T15:32:28.569Z,2.60
2022-08-05T15:34:55.855Z,4.95
2022-08-05T15:38:33.027Z,4.53
2022-08-05T15:40:59.936Z,2.67
2022-08-05T15:43:01.635Z,2.22
2022-08-05T15:45:45.591Z,2.17
2022-08-05T15:48:20.279Z,1.90
2022-08-05T15:50:47.798Z,4.93
2022-08-05T15:53:15.146Z,2.30
2022-08-05T15:56:02.205Z,2.67
2022-08-05T15:58:35.563Z,4.32
2022-08-05T16:01:16.131Z,4.97
2022-08-05T16:03:50.330Z,3.63
2022-08-05T16:06:20.418Z,2.65
2022-08-05T16:11:14.120Z,2.60
2022-08-05T16:13:41.030Z,2.80
2022-08-05T16:16:07.715Z,2.67
2022-08-05T16:18:51.724Z,2.47
2022-08-05T16:23:54.492Z,2.95
2022-08-05T16:26:26.647Z,4.88
2022-08-05T16:28:54.488Z,3.08
2022-08-05T16:31:21.301Z,2.88
2022-08-05T16:33:47.781Z,3.63
2022-08-05T16:36:14.677Z,3.63
2022-08-05T16:38:54.913Z,1.70
2022-08-05T16:42:13.615Z,1.77
2022-08-05T16:44:10.782Z,3.22
2022-08-05T16:46:38.861Z,7.28
2022-08-05T16:49:09.075Z,3.60
2022-08-05T16:51:42.801Z,6.57
2022-08-05T16:54:25.739Z,2.35
2022-08-05T16:56:55.304Z,3.33
2022-08-05T16:59:22.732Z,3.58
2022-08-05T17:01:54.109Z,5.47
2022-08-05T17:04:23.788Z,2.20
2022-08-05T17:06:54.239Z,2.08
2022-08-05T17:09:21.208Z,2.60
2022-08-05T17:11:51.531Z,3.28
2022-08-05T17:14:34.370Z,2.60
2022-08-05T17:17:05.547Z,1.80
2022-08-05T17:19:31.994Z,2.13
2022-08-05T17:22:00.610Z,2.28
2022-08-05T17:24:33.893Z,2.50
2022-08-05T17:27:07.352Z,2.97
2022-08-05T17:29:41.015Z,2.90
2022-08-05T17:32:16.846Z,3.47
2022-08-05T17:34:45.033Z,5.22
2022-08-05T17:37:40.362Z,5.57
2022-08-05T17:40:10.890Z,5.65
2022-08-05T17:42:42.903Z,4.38
2022-08-05T17:45:21.045Z,3.53
2022-08-05T17:47:53.924Z,6.95
2022-08-05T17:50:29.625Z,4.72
2022-08-05T17:53:01.671Z,3.10
2022-08-05T17:55:38.239Z,4.70
2022-08-05T17:58:09.666Z,4.05
2022-08-05T18:00:44.286Z,3.40
2022-08-05T18:03:11.630Z,3.47
2022-08-05T18:05:53.626Z,2.75
2022-08-05T18:10:47.400Z,5.25
2022-08-05T18:13:15.107Z,4.50
2022-08-05T18:15:42.513Z,5.75
2022-08-05T18:18:11.601Z,2.38
2022-08-05T18:20:38.930Z,4.00
2022-08-05T18:23:11.192Z,3.45
2022-08-05T18:25:45.303Z,4.32
2022-08-05T18:28:16.242Z,5.68
2022-08-05T18:30:51.301Z,2.97
2022-08-05T18:33:22.727Z,4.68
2022-08-05T18:36:03.804Z,3.75
2022-08-05T18:38:35.763Z,4.78
2022-08-05T18:41:53.496Z,3.55
2022-08-05T18:43:49.365Z,3.60
2022-08-05T18:46:19.854Z,4.95
2022-08-05T18:48:51.632Z,5.22
2022-08-05T18:52:06.507Z,6.40
2022-08-05T18:54:28.423Z,4.40
2022-08-05T18:57:01.560Z,5.88
2022-08-05T18:59:44.200Z,2.80
2022-08-05T19:02:27.811Z,5.03
2022-08-05T19:05:02.460Z,5.30
2022-08-05T19:07:48.046Z,4.20
2022-08-05T19:10:16.266Z,5.70
2022-08-05T19:12:43.821Z,4.32
2022-08-05T19:15:56.948Z,8.52
2022-08-05T19:18:09.635Z,4.70
2022-08-05T19:20:41.392Z,3.95
2022-08-05T19:24:03.689Z,3.17
2022-08-05T19:26:01.104Z,6.68
2022-08-05T19:28:29.187Z,5.88
2022-08-05T19:30:55.935Z,5.15
2022-08-05T19:33:35.858Z,4.00
2022-08-05T19:36:05.955Z,3.88
2022-08-05T19:38:35.929Z,4.90
2022-08-05T19:41:07.339Z,5.68
2022-08-05T19:44:06.580Z,2.95
2022-08-05T19:46:30.386Z,3.90
2022-08-05T19:49:03.442Z,4.40
2022-08-05T19:52:05.760Z,3.95
2022-08-05T19:54:29.390Z,7.32
2022-08-05T19:57:06.813Z,4.50
2022-08-05T20:00:01.207Z,2.75
2022-08-05T20:02:24.336Z,2.95
2022-08-05T20:04:53.000Z,4.60
2022-08-05T20:07:46.196Z,2.35
2022-08-05T20:10:11.666Z,4.45
2022-08-05T20:12:45.981Z,1.08
2022-08-05T20:15:48.851Z,6.55
2022-08-05T20:18:04.334Z,2.95
2022-08-05T20:20:37.995Z,4.78
2022-08-05T20:23:05.555Z,4.43
2022-08-05T20:25:40.197Z,3.67
2022-08-05T20:28:08.157Z,3.80
2022-08-05T20:30:40.514Z,6.13
2022-08-05T20:33:08.778Z,3.40
2022-08-05T20:35:40.628Z,4.50
2022-08-05T20:38:22.876Z,5.00
2022-08-05T20:40:55.363Z,7.25
2022-08-05T20:43:58.036Z,3.88
2022-08-05T20:46:18.513Z,3.28
2022-08-05T20:48:51.792Z,5.07
2022-08-05T20:51:21.088Z,5.78
2022-08-05T20:53:56.940Z,5.95
2022-08-05T20:56:32.971Z,2.72
2022-08-05T20:59:14.129Z,3.20
2022-08-05T21:01:45.724Z,4.38
2022-08-05T21:04:12.467Z,5.68
2022-08-05T21:06:45.797Z,4.53
2022-08-05T21:09:15.871Z,5.15
2022-08-05T21:12:10.353Z,5.97
2022-08-05T21:14:34.926Z,5.50
2022-08-05T21:17:05.442Z,2.78
2022-08-05T21:19:46.631Z,4.25
2022-08-05T21:22:17.785Z,4.30
2022-08-05T21:24:45.806Z,3.47
2022-08-05T21:27:16.953Z,2.05
2022-08-05T21:29:43.424Z,4.10
2022-08-05T21:32:17.192Z,4.25
2022-08-05T21:34:46.486Z,3.30
2022-08-05T21:37:32.929Z,3.33
2022-08-05T21:39:59.425Z,7.15
2022-08-05T21:42:30.880Z,6.90
2022-08-05T21:45:11.856Z,4.30
2022-08-05T21:47:56.254Z,5.15
2022-08-05T21:50:25.967Z,4.55
2022-08-05T21:52:52.503Z,3.72
2022-08-05T21:56:04.234Z,6.00
2022-08-05T21:58:10.410Z,3.00
2022-08-05T22:00:38.595Z,3.67
2022-08-05T22:03:06.888Z,6.40
2022-08-05T22:05:48.617Z,4.72
2022-08-05T22:08:22.110Z,4.95
2022-08-05T22:10:51.311Z,4.18
2022-08-05T22:14:19.680Z,5.60
2022-08-05T22:16:15.739Z,4.07
2022-08-05T22:18:54.283Z,6.72
2022-08-05T22:21:25.293Z,6.32
2022-08-05T22:24:13.237Z,4.55
2022-08-05T22:27:17.255Z,3.40
2022-08-05T22:29:44.114Z,5.95
2022-08-05T22:32:12.742Z,3.88
2022-08-05T22:34:49.484Z,4.15
2022-08-05T22:37:17.320Z,2.50
2022-08-05T22:39:44.969Z,7.55
2022-08-05T22:42:25.426Z,4.57
2022-08-05T22:44:56.551Z,4.97
2022-08-05T22:47:29.596Z,3.22
2022-08-05T22:50:19.259Z,3.58
2022-08-05T22:52:44.518Z,5.05
2022-08-05T22:55:18.980Z,5.55
2022-08-05T22:57:47.481Z,4.25
2022-08-05T23:00:18.245Z,5.05
2022-08-05T23:02:48.079Z,5.10
2022-08-05T23:05:15.420Z,5.55
2022-08-05T23:07:48.580Z,4.10
2022-08-05T23:10:20.216Z,6.72
2022-08-05T23:15:26.819Z,4.82
2022-08-05T23:18:00.761Z,2.35
2022-08-05T23:20:29.733Z,5.18
2022-08-05T23:22:56.617Z,3.83
2022-08-05T23:25:51.362Z,6.82
2022-08-05T23:28:12.161Z,4.70
2022-08-05T23:30:40.113Z,5.82
2022-08-05T23:33:16.347Z,3.70
2022-08-05T23:35:56.100Z,4.05
2022-08-05T23:38:24.177Z,4.03
2022-08-05T23:40:52.572Z,4.10
2022-08-05T23:43:25.731Z,3.47
2022-08-05T23:46:19.660Z,3.75
2022-08-05T23:49:00.389Z,6.35
2022-08-05T23:51:55.353Z,3.38
2022-08-05T23:54:30.277Z,3.10
2022-08-05T23:57:04.610Z,9.48
